sensor_id;sensor_type;location;lat;lon;timestamp;P1;durP1;ratioP1;P2;durP2;ratioP2
5077;SDS011;2557;51.390;7.494;2023-07-24T00:00:16;4.83;;;3.40;;
5077;SDS011;2557;51.390;7.494;2023-07-24T00:02:42;3.33;;;2.93;;
5077;SDS011;2557;51.390;7.494;2023-07-24T00:05:08;3.67;;;3.47;;
5077;SDS011;2557;51.390;7.494;2023-07-24T00:07:35;5.60;;;3.30;;
5077;SDS011;2557;51.390;7.494;2023-07-24T00:10:01;3.40;;;3.13;;
5077;SDS011;2557;51.390;7.494;2023-07-24T00:12:27;3.53;;;3.23;;
5077;SDS011;2557;51.390;7.494;2023-07-24T00:14:53;5.37;;;4.03;;
5077;SDS011;2557;51.390;7.494;2023-07-24T00:17:19;4.40;;;3.70;;
5077;SDS011;2557;51.390;7.494;2023-07-24T00:19:45;5.03;;;3.70;;
5077;SDS011;2557;51.390;7.494;2023-07-24T00:22:11;3.77;;;3.47;;
5077;SDS011;2557;51.390;7.494;2023-07-24T00:24:37;6.23;;;3.60;;
5077;SDS011;2557;51.390;7.494;2023-07-24T00:27:03;3.83;;;3.43;;
5077;SDS011;2557;51.390;7.494;2023-07-24T00:29:29;3.53;;;3.30;;
5077;SDS011;2557;51.390;7.494;2023-07-24T00:31:55;4.30;;;3.83;;
5077;SDS011;2557;51.390;7.494;2023-07-24T00:34:21;3.70;;;3.40;;
5077;SDS011;2557;51.390;7.494;2023-07-24T00:36:47;3.30;;;3.00;;
5077;SDS011;2557;51.390;7.494;2023-07-24T00:39:16;4.17;;;3.80;;
5077;SDS011;2557;51.390;7.494;2023-07-24T00:41:42;3.17;;;2.97;;
5077;SDS011;2557;51.390;7.494;2023-07-24T00:44:08;3.80;;;3.47;;
5077;SDS011;2557;51.390;7.494;2023-07-24T00:46:34;4.87;;;3.93;;
5077;SDS011;2557;51.390;7.494;2023-07-24T00:49:01;4.10;;;3.37;;
5077;SDS011;2557;51.390;7.494;2023-07-24T00:51:27;3.50;;;3.20;;
5077;SDS011;2557;51.390;7.494;2023-07-24T00:53:54;2.80;;;2.60;;
5077;SDS011;2557;51.390;7.494;2023-07-24T00:56:21;2.70;;;2.50;;
5077;SDS011;2557;51.390;7.494;2023-07-24T00:58:47;6.67;;;3.33;;
5077;SDS011;2557;51.390;7.494;2023-07-24T01:01:13;6.03;;;3.43;;
5077;SDS011;2557;51.390;7.494;2023-07-24T01:03:40;3.53;;;3.27;;
5077;SDS011;2557;51.390;7.494;2023-07-24T01:06:08;2.93;;;2.73;;
5077;SDS011;2557;51.390;7.494;2023-07-24T01:08:34;3.43;;;3.13;;
5077;SDS011;2557;51.390;7.494;2023-07-24T01:11:03;8.30;;;3.37;;
5077;SDS011;2557;51.390;7.494;2023-07-24T01:13:29;5.40;;;2.60;;
5077;SDS011;2557;51.390;7.494;2023-07-24T01:19:00;3.30;;;2.70;;
5077;SDS011;2557;51.390;7.494;2023-07-24T01:21:29;4.30;;;2.70;;
5077;SDS011;2557;51.390;7.494;2023-07-24T01:24:04;3.47;;;3.17;;
5077;SDS011;2557;51.390;7.494;2023-07-24T01:26:35;5.80;;;3.20;;
5077;SDS011;2557;51.390;7.494;2023-07-24T01:29:01;3.27;;;2.97;;
5077;SDS011;2557;51.390;7.494;2023-07-24T01:31:27;3.60;;;3.30;;
5077;SDS011;2557;51.390;7.494;2023-07-24T01:33:53;3.60;;;3.27;;
5077;SDS011;2557;51.390;7.494;2023-07-24T01:36:19;4.33;;;3.77;;
5077;SDS011;2557;51.390;7.494;2023-07-24T01:38:45;4.20;;;3.70;;
5077;SDS011;2557;51.390;7.494;2023-07-24T01:41:11;3.63;;;3.33;;
5077;SDS011;2557;51.390;7.494;2023-07-24T01:43:38;4.27;;;2.80;;
5077;SDS011;2557;51.390;7.494;2023-07-24T01:46:04;2.90;;;2.70;;
5077;SDS011;2557;51.390;7.494;2023-07-24T01:48:30;5.70;;;4.10;;
5077;SDS011;2557;51.390;7.494;2023-07-24T01:50:56;3.37;;;3.10;;
5077;SDS011;2557;51.390;7.494;2023-07-24T01:53:22;4.70;;;4.03;;
5077;SDS011;2557;51.390;7.494;2023-07-24T01:55:48;6.53;;;3.40;;
5077;SDS011;2557;51.390;7.494;2023-07-24T01:58:14;3.50;;;3.00;;
5077;SDS011;2557;51.390;7.494;2023-07-24T02:00:40;3.23;;;3.00;;
5077;SDS011;2557;51.390;7.494;2023-07-24T02:03:05;4.27;;;3.90;;
5077;SDS011;2557;51.390;7.494;2023-07-24T02:05:31;4.20;;;3.40;;
5077;SDS011;2557;51.390;7.494;2023-07-24T02:07:57;4.03;;;3.63;;
5077;SDS011;2557;51.390;7.494;2023-07-24T02:10:23;4.20;;;3.60;;
5077;SDS011;2557;51.390;7.494;2023-07-24T02:12:49;4.00;;;3.60;;
5077;SDS011;2557;51.390;7.494;2023-07-24T02:15:15;5.20;;;3.43;;
5077;SDS011;2557;51.390;7.494;2023-07-24T02:17:41;8.83;;;3.83;;
5077;SDS011;2557;51.390;7.494;2023-07-24T02:20:07;6.83;;;3.73;;
5077;SDS011;2557;51.390;7.494;2023-07-24T02:22:33;5.13;;;4.63;;
5077;SDS011;2557;51.390;7.494;2023-07-24T02:25:00;4.03;;;3.70;;
5077;SDS011;2557;51.390;7.494;2023-07-24T02:27:31;4.57;;;3.83;;
5077;SDS011;2557;51.390;7.494;2023-07-24T02:29:59;4.60;;;4.20;;
5077;SDS011;2557;51.390;7.494;2023-07-24T02:32:25;5.93;;;4.00;;
5077;SDS011;2557;51.390;7.494;2023-07-24T02:34:51;4.70;;;4.30;;
5077;SDS011;2557;51.390;7.494;2023-07-24T02:37:18;5.40;;;4.90;;
5077;SDS011;2557;51.390;7.494;2023-07-24T02:39:44;5.40;;;4.90;;
5077;SDS011;2557;51.390;7.494;2023-07-24T02:42:10;4.10;;;3.80;;
5077;SDS011;2557;51.390;7.494;2023-07-24T02:44:36;5.90;;;3.63;;
5077;SDS011;2557;51.390;7.494;2023-07-24T02:47:02;4.00;;;3.60;;
5077;SDS011;2557;51.390;7.494;2023-07-24T02:49:28;5.20;;;4.80;;
5077;SDS011;2557;51.390;7.494;2023-07-24T02:51:55;6.17;;;4.53;;
5077;SDS011;2557;51.390;7.494;2023-07-24T02:54:20;4.87;;;3.73;;
5077;SDS011;2557;51.390;7.494;2023-07-24T02:56:46;5.50;;;4.47;;
5077;SDS011;2557;51.390;7.494;2023-07-24T02:59:12;4.93;;;3.97;;
5077;SDS011;2557;51.390;7.494;2023-07-24T03:01:38;5.30;;;4.47;;
5077;SDS011;2557;51.390;7.494;2023-07-24T03:04:04;5.80;;;4.53;;
5077;SDS011;2557;51.390;7.494;2023-07-24T03:06:31;7.90;;;4.60;;
5077;SDS011;2557;51.390;7.494;2023-07-24T03:08:57;6.17;;;4.83;;
5077;SDS011;2557;51.390;7.494;2023-07-24T03:11:23;5.60;;;4.10;;
5077;SDS011;2557;51.390;7.494;2023-07-24T03:13:49;4.63;;;4.23;;
5077;SDS011;2557;51.390;7.494;2023-07-24T03:16:15;6.17;;;4.60;;
5077;SDS011;2557;51.390;7.494;2023-07-24T03:18:45;8.37;;;4.30;;
5077;SDS011;2557;51.390;7.494;2023-07-24T03:21:11;9.53;;;4.67;;
5077;SDS011;2557;51.390;7.494;2023-07-24T03:23:37;5.37;;;4.87;;
5077;SDS011;2557;51.390;7.494;2023-07-24T03:26:03;5.43;;;4.40;;
5077;SDS011;2557;51.390;7.494;2023-07-24T03:28:29;5.20;;;4.67;;
5077;SDS011;2557;51.390;7.494;2023-07-24T03:30:55;6.47;;;4.93;;
5077;SDS011;2557;51.390;7.494;2023-07-24T03:33:21;7.10;;;4.63;;
5077;SDS011;2557;51.390;7.494;2023-07-24T03:35:47;5.13;;;4.63;;
5077;SDS011;2557;51.390;7.494;2023-07-24T03:38:13;5.50;;;5.00;;
5077;SDS011;2557;51.390;7.494;2023-07-24T03:40:39;4.90;;;4.43;;
5077;SDS011;2557;51.390;7.494;2023-07-24T03:43:05;5.10;;;4.60;;
5077;SDS011;2557;51.390;7.494;2023-07-24T03:45:31;7.73;;;6.10;;
5077;SDS011;2557;51.390;7.494;2023-07-24T03:47:57;5.77;;;5.17;;
5077;SDS011;2557;51.390;7.494;2023-07-24T03:50:23;7.50;;;4.70;;
5077;SDS011;2557;51.390;7.494;2023-07-24T03:52:49;6.53;;;4.87;;
5077;SDS011;2557;51.390;7.494;2023-07-24T03:55:15;7.13;;;5.40;;
5077;SDS011;2557;51.390;7.494;2023-07-24T03:57:41;6.30;;;4.40;;
5077;SDS011;2557;51.390;7.494;2023-07-24T04:00:07;5.43;;;4.80;;
5077;SDS011;2557;51.390;7.494;2023-07-24T04:02:34;8.93;;;4.30;;
5077;SDS011;2557;51.390;7.494;2023-07-24T04:04:59;5.60;;;4.50;;
5077;SDS011;2557;51.390;7.494;2023-07-24T04:07:25;6.90;;;5.50;;
5077;SDS011;2557;51.390;7.494;2023-07-24T04:09:51;7.17;;;4.60;;
5077;SDS011;2557;51.390;7.494;2023-07-24T04:12:18;6.03;;;4.40;;
5077;SDS011;2557;51.390;7.494;2023-07-24T04:14:43;5.20;;;4.67;;
5077;SDS011;2557;51.390;7.494;2023-07-24T04:17:09;11.33;;;5.20;;
5077;SDS011;2557;51.390;7.494;2023-07-24T04:19:35;5.73;;;5.00;;
5077;SDS011;2557;51.390;7.494;2023-07-24T04:22:01;4.83;;;4.33;;
5077;SDS011;2557;51.390;7.494;2023-07-24T04:24:27;7.40;;;5.40;;
5077;SDS011;2557;51.390;7.494;2023-07-24T04:26:53;5.17;;;4.40;;
5077;SDS011;2557;51.390;7.494;2023-07-24T04:29:19;4.70;;;4.30;;
5077;SDS011;2557;51.390;7.494;2023-07-24T04:31:48;5.87;;;4.20;;
5077;SDS011;2557;51.390;7.494;2023-07-24T04:34:15;5.57;;;4.90;;
5077;SDS011;2557;51.390;7.494;2023-07-24T04:36:41;8.83;;;4.27;;
5077;SDS011;2557;51.390;7.494;2023-07-24T04:39:07;6.77;;;5.63;;
5077;SDS011;2557;51.390;7.494;2023-07-24T04:41:33;7.00;;;4.80;;
5077;SDS011;2557;51.390;7.494;2023-07-24T04:43:59;5.37;;;4.40;;
5077;SDS011;2557;51.390;7.494;2023-07-24T04:46:25;7.23;;;4.93;;
5077;SDS011;2557;51.390;7.494;2023-07-24T04:48:51;5.60;;;5.03;;
5077;SDS011;2557;51.390;7.494;2023-07-24T04:51:17;4.40;;;4.03;;
5077;SDS011;2557;51.390;7.494;2023-07-24T04:53:43;5.70;;;4.73;;
5077;SDS011;2557;51.390;7.494;2023-07-24T04:56:09;5.23;;;4.43;;
5077;SDS011;2557;51.390;7.494;2023-07-24T04:58:35;4.90;;;4.40;;
5077;SDS011;2557;51.390;7.494;2023-07-24T05:01:02;9.53;;;4.60;;
5077;SDS011;2557;51.390;7.494;2023-07-24T05:03:29;6.83;;;5.03;;
5077;SDS011;2557;51.390;7.494;2023-07-24T05:05:55;9.00;;;5.80;;
5077;SDS011;2557;51.390;7.494;2023-07-24T05:08:21;5.40;;;4.37;;
5077;SDS011;2557;51.390;7.494;2023-07-24T05:10:47;5.23;;;4.73;;
5077;SDS011;2557;51.390;7.494;2023-07-24T05:13:13;7.73;;;5.17;;
5077;SDS011;2557;51.390;7.494;2023-07-24T05:15:39;6.23;;;4.53;;
5077;SDS011;2557;51.390;7.494;2023-07-24T05:18:05;5.20;;;4.50;;
5077;SDS011;2557;51.390;7.494;2023-07-24T05:20:31;6.43;;;4.90;;
5077;SDS011;2557;51.390;7.494;2023-07-24T05:22:57;7.23;;;4.73;;
5077;SDS011;2557;51.390;7.494;2023-07-24T05:25:23;5.20;;;4.67;;
5077;SDS011;2557;51.390;7.494;2023-07-24T05:27:49;4.60;;;4.20;;
5077;SDS011;2557;51.390;7.494;2023-07-24T05:30:14;8.70;;;5.37;;
5077;SDS011;2557;51.390;7.494;2023-07-24T05:32:41;5.97;;;5.23;;
5077;SDS011;2557;51.390;7.494;2023-07-24T05:35:07;5.93;;;4.97;;
5077;SDS011;2557;51.390;7.494;2023-07-24T05:37:33;5.67;;;5.00;;
5077;SDS011;2557;51.390;7.494;2023-07-24T05:39:59;5.80;;;4.50;;
5077;SDS011;2557;51.390;7.494;2023-07-24T05:42:25;8.67;;;4.80;;
5077;SDS011;2557;51.390;7.494;2023-07-24T05:44:51;12.67;;;6.30;;
5077;SDS011;2557;51.390;7.494;2023-07-24T05:47:17;8.03;;;5.27;;
5077;SDS011;2557;51.390;7.494;2023-07-24T05:49:43;10.13;;;5.80;;
5077;SDS011;2557;51.390;7.494;2023-07-24T05:52:09;7.40;;;5.20;;
5077;SDS011;2557;51.390;7.494;2023-07-24T05:54:35;5.37;;;4.90;;
5077;SDS011;2557;51.390;7.494;2023-07-24T05:57:01;6.97;;;5.33;;
5077;SDS011;2557;51.390;7.494;2023-07-24T05:59:27;5.93;;;5.00;;
5077;SDS011;2557;51.390;7.494;2023-07-24T06:01:53;8.57;;;5.53;;
5077;SDS011;2557;51.390;7.494;2023-07-24T06:04:19;6.40;;;5.80;;
5077;SDS011;2557;51.390;7.494;2023-07-24T06:06:45;8.07;;;6.13;;
5077;SDS011;2557;51.390;7.494;2023-07-24T06:09:11;8.73;;;6.17;;
5077;SDS011;2557;51.390;7.494;2023-07-24T06:11:37;13.23;;;6.30;;
5077;SDS011;2557;51.390;7.494;2023-07-24T06:14:03;6.10;;;5.50;;
5077;SDS011;2557;51.390;7.494;2023-07-24T06:16:29;9.20;;;6.37;;
5077;SDS011;2557;51.390;7.494;2023-07-24T06:18:55;11.13;;;6.47;;
5077;SDS011;2557;51.390;7.494;2023-07-24T06:21:22;7.17;;;6.00;;
5077;SDS011;2557;51.390;7.494;2023-07-24T06:23:48;8.83;;;6.30;;
5077;SDS011;2557;51.390;7.494;2023-07-24T06:26:14;6.30;;;5.33;;
5077;SDS011;2557;51.390;7.494;2023-07-24T06:28:40;6.50;;;5.90;;
5077;SDS011;2557;51.390;7.494;2023-07-24T06:31:06;8.30;;;6.10;;
5077;SDS011;2557;51.390;7.494;2023-07-24T06:33:32;8.83;;;5.87;;
5077;SDS011;2557;51.390;7.494;2023-07-24T06:35:58;7.03;;;6.00;;
5077;SDS011;2557;51.390;7.494;2023-07-24T06:38:24;6.97;;;6.13;;
5077;SDS011;2557;51.390;7.494;2023-07-24T06:40:50;8.00;;;5.77;;
5077;SDS011;2557;51.390;7.494;2023-07-24T06:43:16;8.70;;;6.40;;
5077;SDS011;2557;51.390;7.494;2023-07-24T06:45:42;6.57;;;5.87;;
5077;SDS011;2557;51.390;7.494;2023-07-24T06:48:08;6.20;;;5.50;;
5077;SDS011;2557;51.390;7.494;2023-07-24T06:50:34;7.93;;;5.57;;
5077;SDS011;2557;51.390;7.494;2023-07-24T06:53:00;6.83;;;5.83;;
5077;SDS011;2557;51.390;7.494;2023-07-24T06:55:26;6.53;;;5.83;;
5077;SDS011;2557;51.390;7.494;2023-07-24T06:57:52;6.93;;;5.90;;
5077;SDS011;2557;51.390;7.494;2023-07-24T07:00:18;7.80;;;5.67;;
5077;SDS011;2557;51.390;7.494;2023-07-24T07:02:44;6.53;;;5.83;;
5077;SDS011;2557;51.390;7.494;2023-07-24T07:05:10;12.70;;;6.30;;
5077;SDS011;2557;51.390;7.494;2023-07-24T07:07:36;6.77;;;6.10;;
5077;SDS011;2557;51.390;7.494;2023-07-24T07:10:02;6.60;;;5.43;;
5077;SDS011;2557;51.390;7.494;2023-07-24T07:12:28;8.63;;;6.30;;
5077;SDS011;2557;51.390;7.494;2023-07-24T07:14:54;7.57;;;6.70;;
5077;SDS011;2557;51.390;7.494;2023-07-24T07:17:20;7.80;;;6.63;;
5077;SDS011;2557;51.390;7.494;2023-07-24T07:19:46;7.37;;;5.70;;
5077;SDS011;2557;51.390;7.494;2023-07-24T07:22:12;6.53;;;5.83;;
5077;SDS011;2557;51.390;7.494;2023-07-24T07:24:38;6.97;;;5.97;;
5077;SDS011;2557;51.390;7.494;2023-07-24T07:27:04;8.23;;;5.93;;
5077;SDS011;2557;51.390;7.494;2023-07-24T07:29:30;8.30;;;5.40;;
5077;SDS011;2557;51.390;7.494;2023-07-24T07:31:56;7.33;;;5.80;;
5077;SDS011;2557;51.390;7.494;2023-07-24T07:34:22;6.07;;;5.57;;
5077;SDS011;2557;51.390;7.494;2023-07-24T07:36:48;12.37;;;6.00;;
5077;SDS011;2557;51.390;7.494;2023-07-24T07:39:14;6.30;;;4.97;;
5077;SDS011;2557;51.390;7.494;2023-07-24T07:41:40;8.73;;;5.80;;
5077;SDS011;2557;51.390;7.494;2023-07-24T07:44:06;7.63;;;6.27;;
5077;SDS011;2557;51.390;7.494;2023-07-24T07:46:32;7.67;;;6.00;;
5077;SDS011;2557;51.390;7.494;2023-07-24T07:48:58;7.07;;;6.37;;
5077;SDS011;2557;51.390;7.494;2023-07-24T07:51:24;6.90;;;6.20;;
5077;SDS011;2557;51.390;7.494;2023-07-24T07:53:51;6.43;;;5.83;;
5077;SDS011;2557;51.390;7.494;2023-07-24T07:56:17;5.70;;;5.30;;
5077;SDS011;2557;51.390;7.494;2023-07-24T07:58:43;12.40;;;6.57;;
5077;SDS011;2557;51.390;7.494;2023-07-24T08:01:09;6.97;;;5.90;;
5077;SDS011;2557;51.390;7.494;2023-07-24T08:03:35;6.80;;;5.97;;
5077;SDS011;2557;51.390;7.494;2023-07-24T08:06:01;6.57;;;5.50;;
5077;SDS011;2557;51.390;7.494;2023-07-24T08:08:27;8.30;;;7.47;;
5077;SDS011;2557;51.390;7.494;2023-07-24T08:10:53;7.03;;;5.70;;
5077;SDS011;2557;51.390;7.494;2023-07-24T08:13:19;6.07;;;5.57;;
5077;SDS011;2557;51.390;7.494;2023-07-24T08:15:45;5.90;;;5.30;;
5077;SDS011;2557;51.390;7.494;2023-07-24T08:18:11;6.97;;;6.20;;
5077;SDS011;2557;51.390;7.494;2023-07-24T08:20:37;5.80;;;5.30;;
5077;SDS011;2557;51.390;7.494;2023-07-24T08:23:05;4.97;;;4.57;;
5077;SDS011;2557;51.390;7.494;2023-07-24T08:25:31;5.27;;;4.87;;
5077;SDS011;2557;51.390;7.494;2023-07-24T08:27:57;5.93;;;4.90;;
5077;SDS011;2557;51.390;7.494;2023-07-24T08:30:23;5.50;;;5.07;;
5077;SDS011;2557;51.390;7.494;2023-07-24T08:32:49;8.10;;;5.33;;
5077;SDS011;2557;51.390;7.494;2023-07-24T08:35:16;5.00;;;4.60;;
5077;SDS011;2557;51.390;7.494;2023-07-24T08:37:42;5.40;;;4.90;;
5077;SDS011;2557;51.390;7.494;2023-07-24T08:40:09;4.43;;;4.03;;
5077;SDS011;2557;51.390;7.494;2023-07-24T08:42:37;7.37;;;5.10;;
5077;SDS011;2557;51.390;7.494;2023-07-24T08:45:05;5.23;;;4.80;;
5077;SDS011;2557;51.390;7.494;2023-07-24T08:47:31;6.23;;;5.20;;
5077;SDS011;2557;51.390;7.494;2023-07-24T08:49:57;6.80;;;5.33;;
5077;SDS011;2557;51.390;7.494;2023-07-24T08:52:24;5.20;;;4.70;;
5077;SDS011;2557;51.390;7.494;2023-07-24T08:54:50;4.83;;;4.43;;
5077;SDS011;2557;51.390;7.494;2023-07-24T08:57:16;5.23;;;4.77;;
5077;SDS011;2557;51.390;7.494;2023-07-24T08:59:43;4.63;;;4.23;;
5077;SDS011;2557;51.390;7.494;2023-07-24T09:02:09;5.00;;;4.37;;
5077;SDS011;2557;51.390;7.494;2023-07-24T09:04:35;7.70;;;4.40;;
5077;SDS011;2557;51.390;7.494;2023-07-24T09:07:01;5.07;;;4.60;;
5077;SDS011;2557;51.390;7.494;2023-07-24T09:09:30;8.17;;;4.57;;
5077;SDS011;2557;51.390;7.494;2023-07-24T09:11:56;4.87;;;4.47;;
5077;SDS011;2557;51.390;7.494;2023-07-24T09:14:24;4.30;;;4.00;;
5077;SDS011;2557;51.390;7.494;2023-07-24T09:17:01;5.97;;;4.40;;
5077;SDS011;2557;51.390;7.494;2023-07-24T09:19:27;4.60;;;4.20;;
5077;SDS011;2557;51.390;7.494;2023-07-24T09:21:53;6.50;;;5.40;;
5077;SDS011;2557;51.390;7.494;2023-07-24T09:24:19;5.07;;;4.67;;
5077;SDS011;2557;51.390;7.494;2023-07-24T09:29:14;5.00;;;4.60;;
5077;SDS011;2557;51.390;7.494;2023-07-24T09:31:40;5.80;;;5.30;;
5077;SDS011;2557;51.390;7.494;2023-07-24T09:34:16;8.10;;;4.70;;
5077;SDS011;2557;51.390;7.494;2023-07-24T09:36:42;5.17;;;4.80;;
5077;SDS011;2557;51.390;7.494;2023-07-24T09:39:09;5.13;;;4.50;;
5077;SDS011;2557;51.390;7.494;2023-07-24T09:41:38;5.13;;;4.77;;
5077;SDS011;2557;51.390;7.494;2023-07-24T09:44:05;5.17;;;4.70;;
5077;SDS011;2557;51.390;7.494;2023-07-24T09:46:31;6.03;;;5.07;;
5077;SDS011;2557;51.390;7.494;2023-07-24T09:48:57;9.43;;;5.30;;
5077;SDS011;2557;51.390;7.494;2023-07-24T09:51:23;4.77;;;4.37;;
5077;SDS011;2557;51.390;7.494;2023-07-24T09:56:15;6.83;;;5.63;;
5077;SDS011;2557;51.390;7.494;2023-07-24T09:58:43;6.20;;;5.63;;
5077;SDS011;2557;51.390;7.494;2023-07-24T10:01:10;8.30;;;6.03;;
5077;SDS011;2557;51.390;7.494;2023-07-24T10:03:40;5.77;;;5.37;;
5077;SDS011;2557;51.390;7.494;2023-07-24T10:06:08;8.80;;;6.90;;
5077;SDS011;2557;51.390;7.494;2023-07-24T10:08:36;6.67;;;6.17;;
5077;SDS011;2557;51.390;7.494;2023-07-24T10:11:02;6.97;;;6.27;;
5077;SDS011;2557;51.390;7.494;2023-07-24T10:13:29;8.87;;;5.83;;
5077;SDS011;2557;51.390;7.494;2023-07-24T10:15:55;7.10;;;6.37;;
5077;SDS011;2557;51.390;7.494;2023-07-24T10:18:27;5.93;;;5.47;;
5077;SDS011;2557;51.390;7.494;2023-07-24T10:21:01;8.83;;;6.40;;
5077;SDS011;2557;51.390;7.494;2023-07-24T10:23:27;9.17;;;5.77;;
5077;SDS011;2557;51.390;7.494;2023-07-24T10:25:53;6.87;;;6.27;;
5077;SDS011;2557;51.390;7.494;2023-07-24T10:28:29;6.43;;;5.67;;
5077;SDS011;2557;51.390;7.494;2023-07-24T10:30:55;7.63;;;5.10;;
5077;SDS011;2557;51.390;7.494;2023-07-24T10:33:22;5.67;;;5.20;;
5077;SDS011;2557;51.390;7.494;2023-07-24T10:35:54;6.57;;;5.93;;
5077;SDS011;2557;51.390;7.494;2023-07-24T10:38:31;6.17;;;5.33;;
5077;SDS011;2557;51.390;7.494;2023-07-24T10:41:01;6.30;;;5.70;;
5077;SDS011;2557;51.390;7.494;2023-07-24T10:43:27;5.87;;;5.03;;
5077;SDS011;2557;51.390;7.494;2023-07-24T10:45:53;6.20;;;5.33;;
5077;SDS011;2557;51.390;7.494;2023-07-24T10:48:20;5.37;;;4.87;;
5077;SDS011;2557;51.390;7.494;2023-07-24T10:50:48;5.47;;;4.97;;
5077;SDS011;2557;51.390;7.494;2023-07-24T10:53:15;5.50;;;4.97;;
5077;SDS011;2557;51.390;7.494;2023-07-24T10:55:42;4.73;;;4.30;;
5077;SDS011;2557;51.390;7.494;2023-07-24T10:58:08;5.67;;;5.17;;
5077;SDS011;2557;51.390;7.494;2023-07-24T11:00:34;4.93;;;4.53;;
5077;SDS011;2557;51.390;7.494;2023-07-24T11:03:00;6.13;;;4.80;;
5077;SDS011;2557;51.390;7.494;2023-07-24T11:05:27;6.17;;;5.57;;
5077;SDS011;2557;51.390;7.494;2023-07-24T11:07:53;5.80;;;5.20;;
5077;SDS011;2557;51.390;7.494;2023-07-24T11:10:20;5.50;;;5.00;;
5077;SDS011;2557;51.390;7.494;2023-07-24T11:12:46;6.20;;;5.67;;
5077;SDS011;2557;51.390;7.494;2023-07-24T11:15:13;5.20;;;4.70;;
5077;SDS011;2557;51.390;7.494;2023-07-24T11:17:39;6.00;;;5.50;;
5077;SDS011;2557;51.390;7.494;2023-07-24T11:22:32;6.30;;;5.70;;
5077;SDS011;2557;51.390;7.494;2023-07-24T11:24:58;11.13;;;4.67;;
5077;SDS011;2557;51.390;7.494;2023-07-24T11:27:26;4.77;;;4.27;;
5077;SDS011;2557;51.390;7.494;2023-07-24T11:29:52;4.97;;;4.20;;
5077;SDS011;2557;51.390;7.494;2023-07-24T11:32:19;4.77;;;4.30;;
5077;SDS011;2557;51.390;7.494;2023-07-24T11:34:45;5.30;;;4.67;;
5077;SDS011;2557;51.390;7.494;2023-07-24T11:37:12;4.40;;;4.00;;
5077;SDS011;2557;51.390;7.494;2023-07-24T11:39:38;4.90;;;4.50;;
5077;SDS011;2557;51.390;7.494;2023-07-24T11:42:04;4.43;;;4.03;;
5077;SDS011;2557;51.390;7.494;2023-07-24T11:44:30;4.60;;;3.70;;
5077;SDS011;2557;51.390;7.494;2023-07-24T11:47:03;6.13;;;4.03;;
5077;SDS011;2557;51.390;7.494;2023-07-24T11:49:30;4.03;;;3.63;;
5077;SDS011;2557;51.390;7.494;2023-07-24T11:52:00;3.93;;;3.63;;
5077;SDS011;2557;51.390;7.494;2023-07-24T11:54:27;7.03;;;4.10;;
5077;SDS011;2557;51.390;7.494;2023-07-24T11:56:53;5.27;;;4.77;;
5077;SDS011;2557;51.390;7.494;2023-07-24T11:59:19;4.87;;;3.53;;
5077;SDS011;2557;51.390;7.494;2023-07-24T12:01:45;4.57;;;4.10;;
5077;SDS011;2557;51.390;7.494;2023-07-24T12:04:15;5.03;;;4.33;;
5077;SDS011;2557;51.390;7.494;2023-07-24T12:06:41;4.57;;;4.00;;
5077;SDS011;2557;51.390;7.494;2023-07-24T12:09:08;5.20;;;4.53;;
5077;SDS011;2557;51.390;7.494;2023-07-24T12:11:39;6.00;;;3.50;;
5077;SDS011;2557;51.390;7.494;2023-07-24T12:14:06;4.80;;;4.20;;
5077;SDS011;2557;51.390;7.494;2023-07-24T12:16:33;4.40;;;4.00;;
5077;SDS011;2557;51.390;7.494;2023-07-24T12:18:59;5.80;;;5.20;;
5077;SDS011;2557;51.390;7.494;2023-07-24T12:21:25;7.77;;;3.87;;
5077;SDS011;2557;51.390;7.494;2023-07-24T12:23:51;4.80;;;2.70;;
5077;SDS011;2557;51.390;7.494;2023-07-24T12:26:17;3.30;;;2.17;;
5077;SDS011;2557;51.390;7.494;2023-07-24T12:28:43;3.90;;;2.23;;
5077;SDS011;2557;51.390;7.494;2023-07-24T12:31:09;3.80;;;2.00;;
5077;SDS011;2557;51.390;7.494;2023-07-24T12:33:35;4.60;;;1.90;;
5077;SDS011;2557;51.390;7.494;2023-07-24T12:36:01;5.93;;;1.90;;
5077;SDS011;2557;51.390;7.494;2023-07-24T12:38:28;6.43;;;1.50;;
5077;SDS011;2557;51.390;7.494;2023-07-24T12:40:54;2.43;;;1.60;;
5077;SDS011;2557;51.390;7.494;2023-07-24T12:43:20;2.30;;;1.30;;
5077;SDS011;2557;51.390;7.494;2023-07-24T12:45:46;2.03;;;1.80;;
5077;SDS011;2557;51.390;7.494;2023-07-24T12:48:12;1.70;;;1.60;;
5077;SDS011;2557;51.390;7.494;2023-07-24T12:50:38;3.43;;;1.43;;
5077;SDS011;2557;51.390;7.494;2023-07-24T12:53:04;2.20;;;1.40;;
5077;SDS011;2557;51.390;7.494;2023-07-24T12:55:30;1.67;;;1.30;;
5077;SDS011;2557;51.390;7.494;2023-07-24T12:57:56;3.60;;;1.70;;
5077;SDS011;2557;51.390;7.494;2023-07-24T13:00:22;2.07;;;1.87;;
5077;SDS011;2557;51.390;7.494;2023-07-24T13:02:48;2.97;;;1.40;;
5077;SDS011;2557;51.390;7.494;2023-07-24T13:05:14;3.97;;;1.67;;
5077;SDS011;2557;51.390;7.494;2023-07-24T13:07:40;1.73;;;1.63;;
5077;SDS011;2557;51.390;7.494;2023-07-24T13:10:07;3.97;;;1.87;;
5077;SDS011;2557;51.390;7.494;2023-07-24T13:12:33;1.60;;;1.50;;
5077;SDS011;2557;51.390;7.494;2023-07-24T13:14:59;4.27;;;1.73;;
5077;SDS011;2557;51.390;7.494;2023-07-24T13:17:25;3.33;;;1.80;;
5077;SDS011;2557;51.390;7.494;2023-07-24T13:19:51;2.63;;;1.60;;
5077;SDS011;2557;51.390;7.494;2023-07-24T13:22:17;2.20;;;2.00;;
5077;SDS011;2557;51.390;7.494;2023-07-24T13:24:43;3.37;;;1.97;;
5077;SDS011;2557;51.390;7.494;2023-07-24T13:27:09;2.00;;;1.90;;
5077;SDS011;2557;51.390;7.494;2023-07-24T13:29:35;2.30;;;2.10;;
5077;SDS011;2557;51.390;7.494;2023-07-24T13:32:01;3.27;;;1.63;;
5077;SDS011;2557;51.390;7.494;2023-07-24T13:34:27;2.37;;;1.83;;
5077;SDS011;2557;51.390;7.494;2023-07-24T13:36:53;2.30;;;2.10;;
5077;SDS011;2557;51.390;7.494;2023-07-24T13:39:19;2.87;;;2.03;;
5077;SDS011;2557;51.390;7.494;2023-07-24T13:41:45;2.17;;;1.97;;
5077;SDS011;2557;51.390;7.494;2023-07-24T13:44:11;3.20;;;2.20;;
5077;SDS011;2557;51.390;7.494;2023-07-24T13:46:37;2.33;;;2.13;;
5077;SDS011;2557;51.390;7.494;2023-07-24T13:49:03;2.20;;;2.00;;
5077;SDS011;2557;51.390;7.494;2023-07-24T13:51:29;2.77;;;1.83;;
5077;SDS011;2557;51.390;7.494;2023-07-24T13:53:55;5.63;;;1.87;;
5077;SDS011;2557;51.390;7.494;2023-07-24T13:56:21;6.13;;;2.30;;
5077;SDS011;2557;51.390;7.494;2023-07-24T13:58:48;2.47;;;2.27;;
5077;SDS011;2557;51.390;7.494;2023-07-24T14:01:14;3.90;;;3.20;;
5077;SDS011;2557;51.390;7.494;2023-07-24T14:03:40;2.67;;;2.40;;
5077;SDS011;2557;51.390;7.494;2023-07-24T14:06:06;2.53;;;2.27;;
5077;SDS011;2557;51.390;7.494;2023-07-24T14:08:32;2.70;;;2.50;;
5077;SDS011;2557;51.390;7.494;2023-07-24T14:10:58;4.63;;;2.53;;
5077;SDS011;2557;51.390;7.494;2023-07-24T14:13:24;2.53;;;2.33;;
5077;SDS011;2557;51.390;7.494;2023-07-24T14:15:50;2.57;;;2.37;;
5077;SDS011;2557;51.390;7.494;2023-07-24T14:18:16;2.33;;;2.10;;
5077;SDS011;2557;51.390;7.494;2023-07-24T14:20:42;3.17;;;2.50;;
5077;SDS011;2557;51.390;7.494;2023-07-24T14:23:08;2.73;;;2.53;;
5077;SDS011;2557;51.390;7.494;2023-07-24T14:25:34;2.77;;;2.57;;
5077;SDS011;2557;51.390;7.494;2023-07-24T14:28:00;3.57;;;2.77;;
5077;SDS011;2557;51.390;7.494;2023-07-24T14:30:26;2.93;;;2.63;;
5077;SDS011;2557;51.390;7.494;2023-07-24T14:32:52;2.20;;;2.07;;
5077;SDS011;2557;51.390;7.494;2023-07-24T14:35:18;2.63;;;2.13;;
5077;SDS011;2557;51.390;7.494;2023-07-24T14:37:44;2.70;;;2.33;;
5077;SDS011;2557;51.390;7.494;2023-07-24T14:40:10;2.83;;;2.67;;
5077;SDS011;2557;51.390;7.494;2023-07-24T14:42:37;2.63;;;2.43;;
5077;SDS011;2557;51.390;7.494;2023-07-24T14:45:03;2.40;;;2.20;;
5077;SDS011;2557;51.390;7.494;2023-07-24T14:47:29;2.63;;;2.43;;
5077;SDS011;2557;51.390;7.494;2023-07-24T14:49:57;2.70;;;2.50;;
5077;SDS011;2557;51.390;7.494;2023-07-24T14:52:23;2.77;;;2.40;;
5077;SDS011;2557;51.390;7.494;2023-07-24T14:54:49;3.13;;;2.87;;
5077;SDS011;2557;51.390;7.494;2023-07-24T14:57:15;3.80;;;2.40;;
5077;SDS011;2557;51.390;7.494;2023-07-24T14:59:41;4.40;;;2.43;;
5077;SDS011;2557;51.390;7.494;2023-07-24T15:02:08;2.73;;;2.53;;
5077;SDS011;2557;51.390;7.494;2023-07-24T15:04:34;3.03;;;2.83;;
5077;SDS011;2557;51.390;7.494;2023-07-24T15:07:00;3.10;;;2.90;;
5077;SDS011;2557;51.390;7.494;2023-07-24T15:09:26;3.40;;;3.10;;
5077;SDS011;2557;51.390;7.494;2023-07-24T15:11:52;3.20;;;2.90;;
5077;SDS011;2557;51.390;7.494;2023-07-24T15:14:18;2.70;;;2.50;;
5077;SDS011;2557;51.390;7.494;2023-07-24T15:16:44;3.47;;;3.20;;
5077;SDS011;2557;51.390;7.494;2023-07-24T15:19:10;2.83;;;2.63;;